• Join FlightAware (Why Join?)
  • Login
  • US Flag 
04:16AM EDT


 

Airport Tracker/Info


-or-


 

Live Flight TrackerFlight Track Log ✈ USC105 ✈ 25-Jun-2013 ✈ KBKL - KYIP

Flight Track Log - Related Links

Times and Time Zones

All times are in EDT time to prevent confusion due to time zone crossing. See the USC105 flight status page for this flight to view local times or setup timezone preferences in your user account.

Time Position Orientation Groundspeed Altitude Reporting Facility
EDT Latitude Longitude Course Direction KTS MPH feet Rate Location/Type
11:12PM 41.5231 -81.7064 314° West 112 129 1,800  Level Cleveland Center
11:13PM 41.5603 -81.7125 333° Northwest 143 165 2,600 780 Climbing Cleveland Center
11:14PM 41.5808 -81.7544 303° West 129 148 3,400 600 Climbing Cleveland Center
11:15PM 41.5992 -81.8022 297° West 160 184 3,900 240 Climbing Cleveland Center
11:16PM 41.6233 -81.8608 299° West 179 206 4,000  Climbing Cleveland Center
11:18PM 41.6406 -81.9919 280° West 168 193 4,000  Level Cleveland Center
11:19PM 41.6544 -82.0533 287° West 168 193 4,000  Level Cleveland Center
11:20PM 41.6725 -82.1064 295° West 180 207 4,000  Level Cleveland Center
11:21PM 41.7031 -82.1544 310° West 168 193 4,000  Level Cleveland Center
11:22PM 41.7172 -82.2050 291° West 167 192 4,000  Level Cleveland Center
11:23PM 41.7369 -82.2667 293° West 164 189 4,000  Level Cleveland Center
11:24PM 41.7528 -82.3283 289° West 171 197 4,000  Level Cleveland Center
11:25PM 41.7706 -82.3928 290° West 172 198 4,000 -60 Level Cleveland Center
11:27PM 41.7964 -82.4631 296° West 171 197 3,900 -60 Descending Cleveland Center
11:28PM 41.8161 -82.5333 291° West 166 191 3,900  Level Cleveland Center
11:29PM 41.8319 -82.5925 290° West 165 190 3,900  Level Cleveland Center
11:30PM 41.8539 -82.6461 299° West 166 191 3,900  Level Cleveland Center
11:31PM 41.8800 -82.6944 306° West 166 191 3,900  Level Cleveland Center
11:32PM 41.9083 -82.7372 312° West 166 191 3,900  Level Cleveland Center
11:33PM 41.9389 -82.7856 310° West 169 194 3,900  Level Cleveland Center
11:34PM 41.9692 -82.8369 308° West 170 196 3,900  Level Cleveland Center
11:35PM 41.9972 -82.8883 306° West 164 189 3,900  Level Cleveland Center
11:36PM 42.0256 -82.9339 310° West 161 185 3,900 420 Level Cleveland Center
11:37PM 42.0517 -82.9797 308° West 123 142 4,900 480 Climbing Cleveland Center
11:38PM 42.0800 -83.0200 313° West 158 182 5,000  Climbing Cleveland Center
11:39PM 42.1081 -83.0714 306° West 167 192 5,000 -60 Level Cleveland Center
11:40PM 42.1300 -83.1197 301° West 168 193 4,900  Descending Cleveland Center
11:41PM 42.1600 -83.1714 308° West 165 190 5,000  Climbing Cleveland Center
11:42PM 42.1919 -83.2344 304° West 163 188 5,000  Level Cleveland Center
11:43PM 42.2100 -83.2717 303° West 163 188 5,000 -60 Level Cleveland Center
11:44PM 42.2378 -83.3261 305° West 159 183 4,900 -240 Descending Cleveland Center
11:45PM 42.2636 -83.3778 304° West 169 194 4,500 -840 Descending Cleveland Center
11:46PM 42.2917 -83.4294 306° West 193 222 3,300 -1,200 Descending Cleveland Center
11:47PM 42.2775 -83.4878 252° West 178 205 2,000 -1,200 Descending Cleveland Center
11:49PM 42.2333 -83.5167 270° West  Level FlightAware Approximate
11:56PM 42.2393 -83.5310 270° West  Level Estimated
11:57PM 42.2393 -83.5310 270° West  Level Estimated